createdAt,value
2017-09-19T00:00:02.336Z,15.39
2017-09-19T00:00:42.893Z,15.41
2017-09-19T00:01:23.456Z,15.47
2017-09-19T00:02:03.990Z,15.53
2017-09-19T00:02:44.520Z,15.47
2017-09-19T00:03:25.032Z,15.5
2017-09-19T00:04:05.556Z,15.51
2017-09-19T00:04:46.089Z,15.49
2017-09-19T00:05:26.605Z,15.5
2017-09-19T00:06:07.165Z,15.53
2017-09-19T00:06:47.716Z,15.29
2017-09-19T00:07:28.280Z,15.28
2017-09-19T00:08:08.829Z,15.19
2017-09-19T00:08:49.377Z,15.31
2017-09-19T00:09:29.909Z,15.36
2017-09-19T00:10:10.454Z,15.41
2017-09-19T00:10:51.000Z,15.41
2017-09-19T00:11:31.553Z,15.41
2017-09-19T00:12:12.101Z,15.43
2017-09-19T00:12:52.656Z,15.38
2017-09-19T00:13:33.214Z,15.25
2017-09-19T00:14:13.778Z,15.21
2017-09-19T00:14:54.333Z,15.25
2017-09-19T00:15:34.867Z,15.34
2017-09-19T00:16:15.437Z,15.35
2017-09-19T00:16:56.004Z,15.28
2017-09-19T00:17:36.547Z,15.25
2017-09-19T00:18:17.210Z,15.23
2017-09-19T00:18:57.760Z,15.34
2017-09-19T00:19:38.277Z,15.38
2017-09-19T00:20:18.822Z,15.34
2017-09-19T00:20:59.402Z,15.27
2017-09-19T00:21:39.927Z,15.34
2017-09-19T00:22:20.471Z,15.31
2017-09-19T00:23:01.031Z,15.35
2017-09-19T00:23:41.608Z,15.35
2017-09-19T00:24:22.172Z,15.38
2017-09-19T00:25:02.729Z,15.34
2017-09-19T00:25:43.317Z,15.38
2017-09-19T00:26:23.890Z,15.29
2017-09-19T00:27:04.444Z,15.41
2017-09-19T00:27:45.012Z,15.44
2017-09-19T00:28:25.559Z,15.34
2017-09-19T00:29:06.131Z,15.36
2017-09-19T00:29:46.660Z,15.41
2017-09-19T00:30:27.205Z,15.36
2017-09-19T00:31:07.764Z,15.39
2017-09-19T00:31:48.285Z,15.46
2017-09-19T00:32:28.881Z,15.39
2017-09-19T00:33:09.408Z,15.43
2017-09-19T00:33:49.955Z,15.35
2017-09-19T00:34:30.508Z,15.38
2017-09-19T00:35:11.053Z,15.36
2017-09-19T00:35:51.609Z,15.28
2017-09-19T00:36:32.207Z,15.28
2017-09-19T00:37:12.784Z,15.21
2017-09-19T00:37:53.360Z,15.02
2017-09-19T00:38:33.917Z,15.2
2017-09-19T00:39:14.470Z,15.17
2017-09-19T00:39:55.046Z,15.23
2017-09-19T00:40:35.636Z,15.17
2017-09-19T00:41:16.209Z,15.21
2017-09-19T00:41:56.757Z,15.23
2017-09-19T00:42:37.338Z,15.27
2017-09-19T00:43:17.884Z,15.17
2017-09-19T00:43:58.422Z,15.2
2017-09-19T00:44:39.003Z,15.09
2017-09-19T00:45:19.545Z,15.06
2017-09-19T00:46:00.076Z,15.07
2017-09-19T00:46:40.589Z,15.01
2017-09-19T00:47:21.127Z,15.09
2017-09-19T00:48:01.687Z,14.92
2017-09-19T00:48:42.216Z,14.99
2017-09-19T00:49:22.749Z,15.07
2017-09-19T00:50:03.299Z,15.03
2017-09-19T00:50:43.852Z,14.99
2017-09-19T00:51:24.402Z,14.94
2017-09-19T00:52:04.950Z,14.94
2017-09-19T00:52:45.496Z,14.94
2017-09-19T00:53:26.080Z,14.77
2017-09-19T00:54:06.631Z,14.91
2017-09-19T00:54:47.192Z,14.86
2017-09-19T00:55:27.719Z,14.81
2017-09-19T00:56:08.269Z,14.69
2017-09-19T00:56:48.822Z,14.83
2017-09-19T00:57:29.395Z,14.84
2017-09-19T00:58:09.935Z,14.84
2017-09-19T00:58:50.483Z,14.96
2017-09-19T00:59:31.012Z,14.86
2017-09-19T01:00:11.560Z,14.92
2017-09-19T01:00:52.083Z,14.91
2017-09-19T01:01:32.617Z,14.98
2017-09-19T01:02:13.203Z,15.03
2017-09-19T01:02:53.737Z,15.06
2017-09-19T01:03:34.296Z,15.1
2017-09-19T01:04:14.868Z,15.02
2017-09-19T01:04:55.429Z,15.14
2017-09-19T01:05:35.965Z,15.2
2017-09-19T01:06:16.468Z,15.2
2017-09-19T01:06:57.016Z,15.21
2017-09-19T01:07:37.550Z,15.2
2017-09-19T01:08:18.106Z,15.13
2017-09-19T01:08:58.637Z,15.25
2017-09-19T01:09:39.158Z,15.19
2017-09-19T01:10:19.663Z,15.07
2017-09-19T01:11:00.208Z,15.02
2017-09-19T01:11:40.768Z,15.17
2017-09-19T01:12:21.304Z,15.19
2017-09-19T01:13:01.851Z,15.19
2017-09-19T01:13:42.345Z,15.25
2017-09-19T01:14:22.887Z,15.19
2017-09-19T01:15:03.431Z,15.25
2017-09-19T01:15:44.000Z,15.21
2017-09-19T01:16:24.507Z,15.11
2017-09-19T01:17:05.052Z,15.19
2017-09-19T01:17:45.591Z,15.17
2017-09-19T01:18:26.186Z,15.25
2017-09-19T01:19:06.664Z,15.19
2017-09-19T01:19:47.182Z,15.1
2017-09-19T01:20:27.764Z,15.13
2017-09-19T01:21:08.291Z,14.95
2017-09-19T01:21:48.850Z,14.96
2017-09-19T01:22:29.360Z,15.1
2017-09-19T01:23:09.942Z,15.13
2017-09-19T01:23:50.449Z,15.13
2017-09-19T01:24:31.014Z,15.11
2017-09-19T01:25:11.556Z,15.01
2017-09-19T01:25:52.083Z,15.11
2017-09-19T01:26:32.642Z,15.06
2017-09-19T01:27:13.187Z,15.01
2017-09-19T01:27:53.717Z,14.92
2017-09-19T01:28:34.292Z,14.91
2017-09-19T01:29:14.765Z,15.02
2017-09-19T01:29:55.296Z,14.89
2017-09-19T01:30:35.822Z,15.02
2017-09-19T01:31:16.341Z,15.06
2017-09-19T01:31:56.884Z,15.01
2017-09-19T01:32:37.438Z,15.01
2017-09-19T01:33:17.990Z,15.09
2017-09-19T01:33:58.545Z,15.09
2017-09-19T01:34:39.136Z,14.94
2017-09-19T01:35:19.690Z,15.03
2017-09-19T01:36:00.200Z,15.01
2017-09-19T01:36:40.722Z,15.07
2017-09-19T01:37:21.253Z,15.09
2017-09-19T01:38:01.797Z,15.07
2017-09-19T01:38:42.337Z,15.02
2017-09-19T01:39:22.892Z,15.07
2017-09-19T01:40:03.404Z,15.07
2017-09-19T01:40:43.977Z,15.2
2017-09-19T01:41:24.516Z,15.17
2017-09-19T01:42:05.035Z,15.25
2017-09-19T01:42:45.532Z,15.21
2017-09-19T01:43:26.063Z,15.13
2017-09-19T01:44:06.610Z,15.02
2017-09-19T01:44:47.205Z,15.09
2017-09-19T01:45:27.788Z,15.13
2017-09-19T01:46:08.342Z,15.2
2017-09-19T01:46:48.826Z,15.27
2017-09-19T01:47:29.392Z,15.28
2017-09-19T01:48:09.944Z,15.28
2017-09-19T01:48:50.496Z,15.28
2017-09-19T01:49:31.059Z,15.02
2017-09-19T01:50:11.610Z,15.02
2017-09-19T01:50:52.163Z,15.07
2017-09-19T01:51:32.735Z,15.03
2017-09-19T01:52:13.278Z,15.03
2017-09-19T01:52:53.826Z,15.03
2017-09-19T01:53:34.386Z,14.99
2017-09-19T01:54:14.939Z,15.07
2017-09-19T01:54:55.474Z,15.1
2017-09-19T01:55:36.006Z,15.03
2017-09-19T01:56:16.570Z,15.09
2017-09-19T01:56:57.109Z,15.06
2017-09-19T01:57:37.636Z,15.17
2017-09-19T01:58:18.230Z,15.25
2017-09-19T01:58:58.769Z,15.21
2017-09-19T01:59:39.340Z,15.27
2017-09-19T02:00:19.898Z,15.32
2017-09-19T02:01:00.414Z,15.28
2017-09-19T02:01:40.976Z,15.16
2017-09-19T02:02:21.539Z,15.16
2017-09-19T02:03:02.029Z,15.25
2017-09-19T02:03:42.593Z,15.2
2017-09-19T02:04:23.173Z,15.28
2017-09-19T02:05:03.691Z,15.14
2017-09-19T02:05:44.252Z,15.16
2017-09-19T02:06:24.773Z,15.28
2017-09-19T02:07:05.338Z,15.19
2017-09-19T02:07:45.853Z,15.21
2017-09-19T02:08:26.395Z,15.01
2017-09-19T02:09:06.945Z,15.13
2017-09-19T02:09:47.486Z,15.09
2017-09-19T02:10:28.018Z,15.02
2017-09-19T02:11:08.559Z,14.95
2017-09-19T02:11:49.102Z,15.01
2017-09-19T02:12:29.703Z,15.01
2017-09-19T02:13:10.283Z,15.02
2017-09-19T02:13:50.810Z,14.99
2017-09-19T02:14:31.358Z,14.83
2017-09-19T02:15:11.916Z,14.86
2017-09-19T02:15:52.456Z,14.78
2017-09-19T02:16:32.983Z,14.83
2017-09-19T02:17:13.540Z,14.8
2017-09-19T02:17:54.160Z,14.88
2017-09-19T02:18:34.747Z,14.92
2017-09-19T02:19:15.314Z,14.94
2017-09-19T02:19:55.900Z,14.89
2017-09-19T02:20:36.474Z,14.91
2017-09-19T02:21:17.006Z,14.8
2017-09-19T02:21:57.606Z,14.81
2017-09-19T02:22:38.155Z,14.86
2017-09-19T02:23:18.690Z,14.83
2017-09-19T02:23:59.251Z,14.69
2017-09-19T02:24:39.776Z,14.81
2017-09-19T02:25:20.332Z,14.77
2017-09-19T02:26:00.905Z,14.75
2017-09-19T02:26:41.457Z,14.72
2017-09-19T02:27:21.980Z,14.88
2017-09-19T02:28:02.529Z,14.69
2017-09-19T02:28:43.211Z,14.73
2017-09-19T02:29:23.794Z,14.77
2017-09-19T02:30:04.294Z,14.78
2017-09-19T02:30:44.812Z,14.75
2017-09-19T02:31:25.359Z,14.72
2017-09-19T02:32:05.903Z,14.61
2017-09-19T02:32:46.458Z,14.64
2017-09-19T02:33:26.978Z,14.58
2017-09-19T02:34:07.517Z,14.78
2017-09-19T02:34:48.064Z,14.68
2017-09-19T02:35:28.620Z,14.61
2017-09-19T02:36:09.168Z,14.68
2017-09-19T02:36:49.735Z,14.68
2017-09-19T02:37:30.276Z,14.55
2017-09-19T02:38:10.857Z,14.5
2017-09-19T02:38:51.368Z,14.64
2017-09-19T02:39:31.905Z,14.68
2017-09-19T02:40:12.471Z,14.69
2017-09-19T02:40:53.016Z,14.61
2017-09-19T02:41:33.553Z,14.61
2017-09-19T02:42:14.107Z,14.65
2017-09-19T02:42:54.644Z,14.64
2017-09-19T02:43:35.233Z,14.62
2017-09-19T02:44:15.833Z,14.72
2017-09-19T02:44:56.416Z,14.72
2017-09-19T02:45:36.973Z,14.72
2017-09-19T02:46:17.479Z,14.64
2017-09-19T02:46:58.031Z,14.65
2017-09-19T02:47:38.579Z,14.61
2017-09-19T02:48:19.179Z,14.61
2017-09-19T02:48:59.730Z,14.6
2017-09-19T02:49:40.279Z,14.58
2017-09-19T02:50:20.869Z,14.73
2017-09-19T02:51:01.450Z,14.61
2017-09-19T02:51:42.003Z,14.78
2017-09-19T02:52:22.564Z,14.7
2017-09-19T02:53:03.134Z,14.6
2017-09-19T02:53:43.674Z,14.68
2017-09-19T02:54:24.222Z,14.7
2017-09-19T02:55:04.755Z,14.65
2017-09-19T02:55:45.329Z,14.58
2017-09-19T02:56:25.855Z,14.78
2017-09-19T02:57:06.431Z,14.72
2017-09-19T02:57:46.996Z,14.77
2017-09-19T02:58:27.550Z,14.73
2017-09-19T02:59:08.114Z,14.8
2017-09-19T02:59:48.660Z,14.7
2017-09-19T03:00:29.212Z,14.64
2017-09-19T03:01:09.760Z,14.64
2017-09-19T03:01:50.261Z,14.65
2017-09-19T03:02:30.820Z,14.64
2017-09-19T03:03:11.377Z,14.69
2017-09-19T03:03:51.999Z,14.64
2017-09-19T03:04:32.553Z,14.64
2017-09-19T03:05:13.098Z,14.68
2017-09-19T03:05:53.686Z,14.61
2017-09-19T03:06:34.255Z,14.51
2017-09-19T03:07:14.795Z,14.52
2017-09-19T03:07:55.364Z,14.43
2017-09-19T03:08:35.918Z,14.52
2017-09-19T03:09:16.464Z,14.61
2017-09-19T03:09:57.023Z,14.6
2017-09-19T03:10:37.569Z,14.62
2017-09-19T03:11:18.118Z,14.58
2017-09-19T03:11:58.654Z,14.68
2017-09-19T03:12:39.181Z,14.78
2017-09-19T03:13:19.731Z,14.81
2017-09-19T03:14:00.283Z,14.83
2017-09-19T03:14:40.897Z,14.81
2017-09-19T03:15:21.543Z,14.64
2017-09-19T03:16:02.085Z,14.73
2017-09-19T03:16:42.609Z,14.8
2017-09-19T03:17:23.155Z,14.77
2017-09-19T03:18:03.739Z,14.88
2017-09-19T03:18:44.290Z,14.83
2017-09-19T03:19:24.855Z,14.88
2017-09-19T03:20:05.390Z,14.92
2017-09-19T03:20:45.911Z,15.01
2017-09-19T03:21:26.453Z,14.94
2017-09-19T03:22:07.013Z,14.89
2017-09-19T03:22:47.516Z,14.92
2017-09-19T03:23:28.053Z,15.01
2017-09-19T03:24:08.589Z,14.99
2017-09-19T03:24:49.114Z,14.89
2017-09-19T03:25:29.777Z,14.88
2017-09-19T03:26:10.380Z,14.91
2017-09-19T03:26:50.877Z,14.72
2017-09-19T03:27:31.434Z,14.88
2017-09-19T03:28:12.018Z,14.89
2017-09-19T03:28:52.579Z,14.89
2017-09-19T03:29:33.132Z,14.91
2017-09-19T03:30:13.666Z,14.89
2017-09-19T03:30:54.236Z,14.96
2017-09-19T03:31:34.804Z,14.94
2017-09-19T03:32:15.380Z,14.84
2017-09-19T03:32:55.959Z,14.8
2017-09-19T03:33:36.486Z,14.72
2017-09-19T03:34:17.059Z,14.73
2017-09-19T03:34:57.600Z,14.65
2017-09-19T03:35:38.141Z,14.72
2017-09-19T03:36:18.712Z,14.78
2017-09-19T03:36:59.222Z,14.77
2017-09-19T03:37:39.816Z,14.73
2017-09-19T03:38:20.404Z,14.65
2017-09-19T03:39:00.971Z,14.51
2017-09-19T03:39:41.528Z,14.46
2017-09-19T03:40:22.091Z,14.5
2017-09-19T03:41:02.651Z,14.5
2017-09-19T03:41:43.200Z,14.43
2017-09-19T03:42:23.759Z,14.46
2017-09-19T03:43:04.322Z,14.52
2017-09-19T03:43:44.839Z,14.62
2017-09-19T03:44:25.368Z,14.69
2017-09-19T03:45:05.895Z,14.73
2017-09-19T03:45:46.408Z,14.77
2017-09-19T03:46:26.969Z,14.77
2017-09-19T03:47:07.520Z,14.78
2017-09-19T03:47:48.060Z,14.75
2017-09-19T03:48:28.580Z,14.83
2017-09-19T03:49:09.105Z,14.8
2017-09-19T03:49:49.631Z,14.81
2017-09-19T03:50:30.244Z,14.8
2017-09-19T03:51:10.742Z,14.75
2017-09-19T03:51:51.302Z,14.72
2017-09-19T03:52:31.841Z,14.69
2017-09-19T03:53:12.448Z,14.58
2017-09-19T03:53:52.928Z,14.54
2017-09-19T03:54:33.469Z,14.58
2017-09-19T03:55:14.029Z,14.6
2017-09-19T03:55:54.572Z,14.73
2017-09-19T03:56:35.060Z,14.75
2017-09-19T03:57:15.583Z,14.8
2017-09-19T03:57:56.204Z,14.75
2017-09-19T03:58:36.717Z,14.72
2017-09-19T03:59:17.291Z,14.7
2017-09-19T03:59:57.807Z,14.86
2017-09-19T04:00:38.353Z,14.81
2017-09-19T04:01:18.906Z,14.73
2017-09-19T04:01:59.444Z,14.77
2017-09-19T04:02:39.968Z,14.8
2017-09-19T04:03:20.538Z,14.89
2017-09-19T04:04:01.079Z,14.75
2017-09-19T04:04:41.591Z,14.68
2017-09-19T04:05:22.184Z,14.62
2017-09-19T04:06:02.678Z,14.57
2017-09-19T04:06:43.168Z,14.54
2017-09-19T04:07:23.728Z,14.5
2017-09-19T04:08:04.236Z,14.47
2017-09-19T04:08:44.780Z,14.55
2017-09-19T04:09:25.337Z,14.47
2017-09-19T04:10:05.835Z,14.6
2017-09-19T04:10:46.383Z,14.54
2017-09-19T04:11:26.917Z,14.55
2017-09-19T04:12:07.452Z,14.6
2017-09-19T04:12:48.048Z,14.62
2017-09-19T04:13:28.726Z,14.55
2017-09-19T04:14:09.240Z,14.46
2017-09-19T04:14:49.810Z,14.45
2017-09-19T04:15:30.313Z,14.47
2017-09-19T04:16:10.879Z,14.57
2017-09-19T04:16:51.439Z,14.6
2017-09-19T04:17:32.011Z,14.6
2017-09-19T04:18:12.566Z,14.75
2017-09-19T04:18:53.099Z,14.75
2017-09-19T04:19:33.791Z,14.69
2017-09-19T04:20:14.243Z,14.81
2017-09-19T04:20:54.794Z,14.77
2017-09-19T04:21:35.382Z,14.7
2017-09-19T04:22:15.919Z,14.73
2017-09-19T04:22:56.509Z,14.61
2017-09-19T04:23:37.013Z,14.72
2017-09-19T04:24:17.518Z,14.6
2017-09-19T04:24:58.053Z,14.64
2017-09-19T04:25:38.556Z,14.58
2017-09-19T04:26:19.119Z,14.72
2017-09-19T04:26:59.701Z,14.72
2017-09-19T04:27:40.226Z,14.73
2017-09-19T04:28:20.783Z,14.64
2017-09-19T04:29:01.334Z,14.69
2017-09-19T04:29:41.898Z,14.57
2017-09-19T04:30:22.413Z,14.61
2017-09-19T04:31:06.503Z,14.64
2017-09-19T04:31:47.078Z,14.64
2017-09-19T04:32:27.612Z,14.61
2017-09-19T04:33:08.216Z,14.51
2017-09-19T04:33:48.748Z,14.51
2017-09-19T04:34:29.274Z,14.46
2017-09-19T04:35:09.840Z,14.45
2017-09-19T04:35:50.387Z,14.46
2017-09-19T04:36:30.909Z,14.51
2017-09-19T04:37:11.493Z,14.54
2017-09-19T04:37:52.002Z,14.46
2017-09-19T04:38:32.578Z,14.64
2017-09-19T04:39:13.156Z,14.58
2017-09-19T04:39:53.669Z,14.62
2017-09-19T04:40:34.213Z,14.54
2017-09-19T04:41:14.781Z,14.54
2017-09-19T04:41:55.436Z,14.47
2017-09-19T04:42:35.910Z,14.6
2017-09-19T04:43:16.454Z,14.58
2017-09-19T04:43:56.975Z,14.5
2017-09-19T04:44:37.545Z,14.47
2017-09-19T04:45:18.053Z,14.51
2017-09-19T04:45:58.671Z,14.55
2017-09-19T04:46:39.182Z,14.47
2017-09-19T04:47:19.678Z,14.37
2017-09-19T04:48:00.287Z,14.43
2017-09-19T04:48:40.800Z,14.37
2017-09-19T04:49:21.341Z,14.36
2017-09-19T04:50:01.894Z,14.36
2017-09-19T04:50:42.467Z,14.32
2017-09-19T04:51:22.953Z,14.36
2017-09-19T04:52:03.533Z,14.25
2017-09-19T04:52:44.025Z,14.25
2017-09-19T04:53:24.619Z,14.35
2017-09-19T04:54:05.122Z,14.35
2017-09-19T04:54:45.720Z,14.42
2017-09-19T04:55:26.240Z,14.43
2017-09-19T04:56:06.739Z,14.47
2017-09-19T04:56:47.280Z,14.61
2017-09-19T04:57:27.834Z,14.57
2017-09-19T04:58:08.411Z,14.55
2017-09-19T04:58:48.986Z,14.61
2017-09-19T04:59:29.508Z,14.65
2017-09-19T05:00:10.017Z,14.64
2017-09-19T05:00:50.522Z,14.58
2017-09-19T05:01:31.094Z,14.64
2017-09-19T05:02:11.632Z,14.61
2017-09-19T05:02:52.155Z,14.73
2017-09-19T05:03:32.725Z,14.68
2017-09-19T05:04:13.260Z,14.77
2017-09-19T05:04:53.855Z,14.78
2017-09-19T05:05:34.421Z,14.77
2017-09-19T05:06:14.946Z,14.73
2017-09-19T05:06:55.500Z,14.81
2017-09-19T05:07:36.034Z,14.83
2017-09-19T05:08:16.557Z,14.77
2017-09-19T05:08:57.130Z,14.73
2017-09-19T05:09:37.634Z,14.72
2017-09-19T05:10:18.161Z,14.75
2017-09-19T05:10:58.784Z,14.78
2017-09-19T05:11:39.558Z,14.8
2017-09-19T05:12:20.002Z,14.83
2017-09-19T05:13:00.522Z,14.86
2017-09-19T05:13:41.024Z,14.8
2017-09-19T05:14:21.578Z,14.81
2017-09-19T05:15:02.132Z,14.62
2017-09-19T05:15:42.607Z,14.62
2017-09-19T05:16:23.167Z,14.73
2017-09-19T05:17:03.729Z,14.78
2017-09-19T05:17:44.280Z,14.68
2017-09-19T05:18:25.854Z,14.78
2017-09-19T05:19:06.331Z,14.84
2017-09-19T05:19:46.888Z,14.89
2017-09-19T05:20:27.431Z,14.78
2017-09-19T05:21:07.993Z,14.84
2017-09-19T05:21:48.480Z,14.98
2017-09-19T05:22:29.032Z,15.01
2017-09-19T05:23:09.589Z,14.99
2017-09-19T05:23:50.129Z,15.03
2017-09-19T05:24:30.657Z,15.07
2017-09-19T05:25:11.215Z,15.14
2017-09-19T05:25:51.742Z,15.02
2017-09-19T05:26:34.042Z,15.16
2017-09-19T05:27:14.627Z,15.06
2017-09-19T05:27:55.151Z,15.03
2017-09-19T05:28:35.657Z,15.19
2017-09-19T05:29:16.193Z,15.19
2017-09-19T05:29:56.757Z,15.25
2017-09-19T05:30:37.319Z,15.31
2017-09-19T05:31:17.861Z,15.34
2017-09-19T05:31:58.399Z,15.36
2017-09-19T05:32:39.014Z,15.43
2017-09-19T05:33:19.585Z,15.5
2017-09-19T05:34:00.181Z,15.41
2017-09-19T05:34:40.734Z,15.35
2017-09-19T05:35:21.281Z,15.34
2017-09-19T05:36:01.863Z,15.36
2017-09-19T05:36:42.718Z,15.39
2017-09-19T05:37:23.310Z,15.46
2017-09-19T05:38:03.876Z,15.46
2017-09-19T05:38:44.418Z,15.5
2017-09-19T05:39:24.987Z,15.5
2017-09-19T05:40:05.579Z,15.47
2017-09-19T05:40:46.111Z,15.53
2017-09-19T05:41:26.683Z,15.71
2017-09-19T05:42:07.247Z,15.68
2017-09-19T05:42:47.767Z,15.59
2017-09-19T05:43:28.324Z,15.69
2017-09-19T05:44:08.878Z,15.64
2017-09-19T05:44:49.422Z,15.57
2017-09-19T05:45:29.972Z,15.65
2017-09-19T05:46:10.523Z,15.57
2017-09-19T05:46:51.098Z,15.68
2017-09-19T05:47:31.663Z,15.71
2017-09-19T05:48:12.213Z,15.75
2017-09-19T05:48:52.766Z,15.74
2017-09-19T05:49:33.317Z,15.69
2017-09-19T05:50:13.869Z,15.67
2017-09-19T05:50:54.417Z,15.71
2017-09-19T05:51:34.951Z,15.72
2017-09-19T05:52:15.470Z,15.86
2017-09-19T05:52:55.997Z,15.78
2017-09-19T05:53:36.534Z,15.83
2017-09-19T05:54:17.108Z,15.89
2017-09-19T05:54:57.670Z,15.8
2017-09-19T05:55:38.251Z,15.76
2017-09-19T05:56:18.734Z,15.86
2017-09-19T05:56:59.299Z,15.74
2017-09-19T05:57:39.886Z,15.74
2017-09-19T05:58:20.435Z,15.68
2017-09-19T05:59:01.000Z,15.72
2017-09-19T05:59:41.571Z,15.82
2017-09-19T06:00:22.226Z,15.74
2017-09-19T06:01:02.794Z,15.75
2017-09-19T06:01:43.379Z,16.08
2017-09-19T06:02:23.886Z,16.35
2017-09-19T06:03:04.608Z,16.45
2017-09-19T06:03:45.347Z,16.38
2017-09-19T06:04:26.589Z,16.45
2017-09-19T06:05:07.122Z,16.27
2017-09-19T06:05:47.610Z,16.14
2017-09-19T06:06:28.144Z,16.05
2017-09-19T06:07:08.730Z,16.15
2017-09-19T06:07:49.323Z,16.43
2017-09-19T06:08:29.940Z,16.38
2017-09-19T06:09:10.503Z,16.27
2017-09-19T06:09:50.995Z,16.41
2017-09-19T06:10:31.532Z,16.63
2017-09-19T06:11:12.085Z,16.71
2017-09-19T06:11:52.645Z,16.43
2017-09-19T06:12:33.246Z,16.5
2017-09-19T06:13:13.872Z,16.3
2017-09-19T06:13:54.395Z,16.23
2017-09-19T06:14:34.958Z,16.3
2017-09-19T06:15:15.456Z,16.35
2017-09-19T06:15:56.052Z,16.33
2017-09-19T06:16:36.552Z,16.39
2017-09-19T06:17:17.168Z,16.24
2017-09-19T06:17:57.679Z,16.14
2017-09-19T06:18:38.290Z,16.09
2017-09-19T06:19:18.909Z,16.24
2017-09-19T06:19:59.455Z,16.42
2017-09-19T06:20:39.986Z,16.79
2017-09-19T06:21:20.639Z,16.7
2017-09-19T06:22:01.176Z,16.91
2017-09-19T06:22:41.760Z,16.79
2017-09-19T06:23:22.505Z,16.85
2017-09-19T06:24:03.054Z,16.49
2017-09-19T06:24:43.740Z,16.58
2017-09-19T06:25:24.272Z,16.67
2017-09-19T06:26:04.827Z,16.71
2017-09-19T06:26:45.389Z,16.85
2017-09-19T06:27:26.018Z,16.86
2017-09-19T06:28:06.571Z,16.96
2017-09-19T06:28:47.102Z,16.85
2017-09-19T06:29:27.682Z,16.73
2017-09-19T06:30:08.244Z,16.88
2017-09-19T06:30:48.784Z,17.01
2017-09-19T06:31:29.324Z,17.11
2017-09-19T06:32:09.888Z,17.12
2017-09-19T06:32:50.425Z,17.08
2017-09-19T06:33:30.964Z,16.89
2017-09-19T06:34:11.562Z,17.01
2017-09-19T06:34:52.132Z,16.97
2017-09-19T06:35:32.640Z,17.01
2017-09-19T06:36:13.225Z,17.06
2017-09-19T06:36:53.775Z,16.98
2017-09-19T06:37:34.303Z,16.96
2017-09-19T06:38:14.815Z,17.11
2017-09-19T06:38:55.382Z,17.14
2017-09-19T06:39:35.911Z,17.06
2017-09-19T06:40:16.433Z,16.97
2017-09-19T06:40:56.991Z,17.01
2017-09-19T06:41:37.558Z,17.03
2017-09-19T06:42:18.103Z,17.03
2017-09-19T06:42:58.652Z,17
2017-09-19T06:43:39.201Z,16.86
2017-09-19T06:44:19.699Z,16.91
2017-09-19T06:45:00.294Z,16.81
2017-09-19T06:45:40.833Z,16.94
2017-09-19T06:46:21.419Z,17
2017-09-19T06:47:02.090Z,17.12
2017-09-19T06:47:42.733Z,17.16
2017-09-19T06:48:23.270Z,17.21
2017-09-19T06:49:03.848Z,17.26
2017-09-19T06:49:44.410Z,17.41
2017-09-19T06:50:24.928Z,17.06
2017-09-19T06:51:05.462Z,17.11
2017-09-19T06:51:46.046Z,17.03
2017-09-19T06:52:26.565Z,16.89
2017-09-19T06:53:07.135Z,17.06
2017-09-19T06:53:47.672Z,17.06
2017-09-19T06:54:28.193Z,17.26
2017-09-19T06:55:08.776Z,17.41
2017-09-19T06:55:49.251Z,17.34
2017-09-19T06:56:29.867Z,17.28
2017-09-19T06:57:10.363Z,17.18
2017-09-19T06:57:51.254Z,17.22
2017-09-19T06:58:31.920Z,17.34
2017-09-19T06:59:12.464Z,17.36
2017-09-19T06:59:53.331Z,17.44
2017-09-19T07:00:34.004Z,17.56
2017-09-19T07:01:14.663Z,17.56
2017-09-19T07:01:55.325Z,17.54
2017-09-19T07:02:35.945Z,17.56
2017-09-19T07:03:16.412Z,17.54
2017-09-19T07:03:57.124Z,17.49
2017-09-19T07:04:37.652Z,17.54
2017-09-19T07:05:18.126Z,17.49
2017-09-19T07:05:58.804Z,17.79
2017-09-19T07:06:39.321Z,17.58
2017-09-19T07:07:19.837Z,17.66
2017-09-19T07:08:00.435Z,17.78
2017-09-19T07:08:41.016Z,17.81
2017-09-19T07:09:21.551Z,17.93
2017-09-19T07:10:02.072Z,18.07
2017-09-19T07:10:42.609Z,18.1
2017-09-19T07:11:23.182Z,18.08
2017-09-19T07:12:03.683Z,18.29
2017-09-19T07:12:44.336Z,18.35
2017-09-19T07:13:24.888Z,18.29
2017-09-19T07:14:05.648Z,18.26
2017-09-19T07:14:46.195Z,18.41
2017-09-19T07:15:26.749Z,18.5
2017-09-19T07:16:07.307Z,18.39
2017-09-19T07:16:47.890Z,18.45
2017-09-19T07:17:28.502Z,18.37
2017-09-19T07:18:09.563Z,18.44
2017-09-19T07:18:49.951Z,18.37
2017-09-19T07:19:30.505Z,18.39
2017-09-19T07:20:11.344Z,18.42
2017-09-19T07:20:51.832Z,18.54
2017-09-19T07:21:32.423Z,18.55
2017-09-19T07:22:13.009Z,18.6
2017-09-19T07:22:53.646Z,18.65
2017-09-19T07:23:34.213Z,18.67
2017-09-19T07:24:14.820Z,18.72
2017-09-19T07:24:55.359Z,18.7
2017-09-19T07:25:35.945Z,18.52
2017-09-19T07:26:16.543Z,18.57
2017-09-19T07:26:57.070Z,18.54
2017-09-19T07:27:37.676Z,18.47
2017-09-19T07:28:18.171Z,18.55
2017-09-19T07:28:58.876Z,18.41
2017-09-19T07:29:39.326Z,18.37
2017-09-19T07:30:19.868Z,18.5
2017-09-19T07:31:00.419Z,18.41
2017-09-19T07:31:40.945Z,18.3
2017-09-19T07:32:21.685Z,18.25
2017-09-19T07:33:02.851Z,18.15
2017-09-19T07:33:43.393Z,18.1
2017-09-19T07:34:23.945Z,17.92
2017-09-19T07:35:04.453Z,17.77
2017-09-19T07:35:45.016Z,17.74
2017-09-19T07:36:25.549Z,17.49
2017-09-19T07:37:06.264Z,17.21
2017-09-19T07:37:46.875Z,17.41
2017-09-19T07:38:27.457Z,17.56
2017-09-19T07:39:08.084Z,17.49
2017-09-19T07:39:48.511Z,17.36
2017-09-19T07:40:29.222Z,17.48
2017-09-19T07:41:09.715Z,17.48
2017-09-19T07:41:50.290Z,17.38
2017-09-19T07:42:30.851Z,17.41
2017-09-19T07:43:11.444Z,17.36
2017-09-19T07:43:51.945Z,17.33
2017-09-19T07:44:32.588Z,17.22
2017-09-19T07:45:13.167Z,17.33
2017-09-19T07:45:53.693Z,17.37
2017-09-19T07:46:34.378Z,17.23
2017-09-19T07:47:15.721Z,17.19
2017-09-19T07:47:59.160Z,16.98
2017-09-19T07:48:39.738Z,17.19
2017-09-19T07:49:20.290Z,17.43
2017-09-19T07:50:00.881Z,17.41
2017-09-19T07:50:41.374Z,17.44
2017-09-19T07:51:21.934Z,17.48
2017-09-19T07:52:02.456Z,17.55
2017-09-19T07:52:43.016Z,17.56
2017-09-19T07:53:23.578Z,17.56
2017-09-19T07:54:04.117Z,17.59
2017-09-19T07:54:44.658Z,17.59
2017-09-19T07:55:25.212Z,17.64
2017-09-19T07:56:05.731Z,17.74
2017-09-19T07:56:46.311Z,17.75
2017-09-19T07:57:26.828Z,17.68
2017-09-19T07:58:07.321Z,17.74
2017-09-19T07:58:47.909Z,17.54
2017-09-19T07:59:28.459Z,17.71
2017-09-19T08:00:09.179Z,17.63
2017-09-19T08:00:49.664Z,17.56
2017-09-19T08:01:30.193Z,17.54
2017-09-19T08:02:10.730Z,17.46
2017-09-19T08:02:51.293Z,17.72
2017-09-19T08:03:31.806Z,17.66
2017-09-19T08:04:12.377Z,17.78
2017-09-19T08:04:52.938Z,17.95
2017-09-19T08:05:33.511Z,18.17
2017-09-19T08:06:14.084Z,18.11
2017-09-19T08:06:54.614Z,18.12
2017-09-19T08:07:35.231Z,18.1
2017-09-19T08:08:15.781Z,18.1
2017-09-19T08:08:56.362Z,18.33
2017-09-19T08:09:36.973Z,18.37
2017-09-19T08:10:17.492Z,18.41
2017-09-19T08:10:58.119Z,18.52
2017-09-19T08:11:38.630Z,18.47
2017-09-19T08:12:19.184Z,18.6
2017-09-19T08:12:59.733Z,18.57
2017-09-19T08:13:40.329Z,18.48
2017-09-19T08:14:20.794Z,18.37
2017-09-19T08:15:01.322Z,18.32
2017-09-19T08:15:41.989Z,18.27
2017-09-19T08:16:22.474Z,18.1
2017-09-19T08:17:02.940Z,18.15
2017-09-19T08:17:43.500Z,18.3
2017-09-19T08:18:24.046Z,18.27
2017-09-19T08:19:04.649Z,18.26
2017-09-19T08:19:45.136Z,18.39
2017-09-19T08:20:25.683Z,18.3
2017-09-19T08:21:06.252Z,18.33
2017-09-19T08:21:46.749Z,18.48
2017-09-19T08:22:27.349Z,18.54
2017-09-19T08:23:07.896Z,18.44
2017-09-19T08:23:48.440Z,18.6
2017-09-19T08:24:29.000Z,18.51
2017-09-19T08:25:09.564Z,18.45
2017-09-19T08:25:50.094Z,18.52
2017-09-19T08:26:32.184Z,18.51
2017-09-19T08:27:12.746Z,18.54
2017-09-19T08:27:53.349Z,18.58
2017-09-19T08:28:33.900Z,18.6
2017-09-19T08:29:14.519Z,18.67
2017-09-19T08:29:55.216Z,18.72
2017-09-19T08:30:35.745Z,18.82
2017-09-19T08:31:16.300Z,18.82
2017-09-19T08:31:56.847Z,18.6
2017-09-19T08:32:37.387Z,18.52
2017-09-19T08:33:18.140Z,18.62
2017-09-19T08:33:58.666Z,18.57
2017-09-19T08:34:39.207Z,18.6
2017-09-19T08:35:19.742Z,18.6
2017-09-19T08:36:00.237Z,18.57
2017-09-19T08:36:40.775Z,18.6
2017-09-19T08:37:21.350Z,18.6
2017-09-19T08:38:01.875Z,18.58
2017-09-19T08:38:42.470Z,18.57
2017-09-19T08:39:22.957Z,18.5
2017-09-19T08:40:03.522Z,18.29
2017-09-19T08:40:44.063Z,18.26
2017-09-19T08:41:24.606Z,18.17
2017-09-19T08:42:05.169Z,18.27
2017-09-19T08:42:45.661Z,18.33
2017-09-19T08:43:26.277Z,18.36
2017-09-19T08:44:06.802Z,18.23